sensor_id;sensor_type;location;lat;lon;timestamp;pressure;altitude;pressure_sealevel;temperature;humidity
26083;BME280;13848;49.018;12.078;2023-04-21T00:00:12;97301.53;;;8.65;76.95
26083;BME280;13848;49.018;12.078;2023-04-21T00:02:38;97293.88;;;8.62;76.91
26083;BME280;13848;49.018;12.078;2023-04-21T00:05:05;97281.31;;;8.56;76.64
26083;BME280;13848;49.018;12.078;2023-04-21T00:07:32;97285.06;;;8.55;76.90
26083;BME280;13848;49.018;12.078;2023-04-21T00:09:58;97296.09;;;8.47;76.99
26083;BME280;13848;49.018;12.078;2023-04-21T00:12:24;97288.34;;;8.25;78.42
26083;BME280;13848;49.018;12.078;2023-04-21T00:14:50;97284.19;;;8.30;78.04
26083;BME280;13848;49.018;12.078;2023-04-21T00:17:16;97283.72;;;8.33;78.50
26083;BME280;13848;49.018;12.078;2023-04-21T00:19:42;97276.72;;;8.32;77.78
26083;BME280;13848;49.018;12.078;2023-04-21T00:22:07;97280.00;;;8.34;78.06
26083;BME280;13848;49.018;12.078;2023-04-21T00:24:35;97274.63;;;8.34;78.12
26083;BME280;13848;49.018;12.078;2023-04-21T00:27:01;97272.00;;;8.27;77.87
26083;BME280;13848;49.018;12.078;2023-04-21T00:29:27;97266.25;;;8.23;78.17
26083;BME280;13848;49.018;12.078;2023-04-21T00:31:53;97270.31;;;8.33;77.75
26083;BME280;13848;49.018;12.078;2023-04-21T00:34:18;97268.13;;;8.16;78.31
26083;BME280;13848;49.018;12.078;2023-04-21T00:36:44;97260.03;;;8.23;77.97
26083;BME280;13848;49.018;12.078;2023-04-21T00:39:10;97266.84;;;8.25;77.95
26083;BME280;13848;49.018;12.078;2023-04-21T00:41:38;97269.97;;;8.22;77.89
26083;BME280;13848;49.018;12.078;2023-04-21T00:44:05;97265.25;;;8.18;78.01
26083;BME280;13848;49.018;12.078;2023-04-21T00:46:32;97262.75;;;8.16;78.42
26083;BME280;13848;49.018;12.078;2023-04-21T00:48:58;97268.75;;;8.18;78.19
26083;BME280;13848;49.018;12.078;2023-04-21T00:51:25;97268.31;;;8.21;78.06
26083;BME280;13848;49.018;12.078;2023-04-21T00:53:53;97268.13;;;8.16;78.36
26083;BME280;13848;49.018;12.078;2023-04-21T00:56:20;97267.13;;;8.11;78.38
26083;BME280;13848;49.018;12.078;2023-04-21T00:58:48;97272.72;;;8.09;78.33
26083;BME280;13848;49.018;12.078;2023-04-21T01:01:14;97281.84;;;8.08;78.12
26083;BME280;13848;49.018;12.078;2023-04-21T01:03:40;97280.06;;;7.95;79.01
26083;BME280;13848;49.018;12.078;2023-04-21T01:06:06;97290.56;;;7.97;78.67
26083;BME280;13848;49.018;12.078;2023-04-21T01:08:33;97285.38;;;8.02;78.88
26083;BME280;13848;49.018;12.078;2023-04-21T01:10:59;97282.47;;;8.04;78.62
26083;BME280;13848;49.018;12.078;2023-04-21T01:13:25;97282.69;;;8.02;78.72
26083;BME280;13848;49.018;12.078;2023-04-21T01:15:52;97281.47;;;7.98;78.51
26083;BME280;13848;49.018;12.078;2023-04-21T01:18:18;97288.94;;;7.96;78.90
26083;BME280;13848;49.018;12.078;2023-04-21T01:20:44;97283.97;;;7.93;78.82
26083;BME280;13848;49.018;12.078;2023-04-21T01:23:11;97282.34;;;7.92;78.87
26083;BME280;13848;49.018;12.078;2023-04-21T01:25:37;97281.28;;;7.93;78.62
26083;BME280;13848;49.018;12.078;2023-04-21T01:28:03;97292.84;;;7.93;78.39
26083;BME280;13848;49.018;12.078;2023-04-21T01:30:29;97291.84;;;7.88;78.81
26083;BME280;13848;49.018;12.078;2023-04-21T01:32:55;97286.13;;;7.78;79.12
26083;BME280;13848;49.018;12.078;2023-04-21T01:35:21;97289.41;;;7.80;79.34
26083;BME280;13848;49.018;12.078;2023-04-21T01:37:47;97289.00;;;7.76;78.96
26083;BME280;13848;49.018;12.078;2023-04-21T01:40:14;97285.75;;;7.67;79.65
26083;BME280;13848;49.018;12.078;2023-04-21T01:42:41;97285.31;;;7.70;79.76
26083;BME280;13848;49.018;12.078;2023-04-21T01:45:08;97279.94;;;7.70;79.38
26083;BME280;13848;49.018;12.078;2023-04-21T01:47:34;97275.84;;;7.68;79.81
26083;BME280;13848;49.018;12.078;2023-04-21T01:50:00;97278.53;;;7.68;79.48
26083;BME280;13848;49.018;12.078;2023-04-21T01:52:26;97279.75;;;7.72;79.33
26083;BME280;13848;49.018;12.078;2023-04-21T01:54:52;97287.00;;;7.65;79.38
26083;BME280;13848;49.018;12.078;2023-04-21T01:57:19;97282.88;;;7.62;79.43
26083;BME280;13848;49.018;12.078;2023-04-21T01:59:45;97285.41;;;7.51;80.04
26083;BME280;13848;49.018;12.078;2023-04-21T02:02:11;97286.16;;;7.64;79.61
26083;BME280;13848;49.018;12.078;2023-04-21T02:04:37;97285.38;;;7.57;79.82
26083;BME280;13848;49.018;12.078;2023-04-21T02:07:03;97294.13;;;7.39;80.27
26083;BME280;13848;49.018;12.078;2023-04-21T02:09:29;97295.94;;;7.45;80.28
26083;BME280;13848;49.018;12.078;2023-04-21T02:11:57;97288.69;;;7.53;80.14
26083;BME280;13848;49.018;12.078;2023-04-21T02:14:24;97292.03;;;7.48;80.12
26083;BME280;13848;49.018;12.078;2023-04-21T02:16:50;97293.88;;;7.54;80.06
26083;BME280;13848;49.018;12.078;2023-04-21T02:19:16;97287.06;;;7.45;80.17
26083;BME280;13848;49.018;12.078;2023-04-21T02:21:42;97284.00;;;7.48;79.98
26083;BME280;13848;49.018;12.078;2023-04-21T02:24:08;97284.81;;;7.42;80.25
26083;BME280;13848;49.018;12.078;2023-04-21T02:26:34;97284.19;;;7.40;80.26
26083;BME280;13848;49.018;12.078;2023-04-21T02:29:00;97283.16;;;7.41;79.83
26083;BME280;13848;49.018;12.078;2023-04-21T02:31:27;97277.19;;;7.39;80.40
26083;BME280;13848;49.018;12.078;2023-04-21T02:33:53;97288.34;;;7.36;79.84
26083;BME280;13848;49.018;12.078;2023-04-21T02:36:19;97285.06;;;7.34;80.08
26083;BME280;13848;49.018;12.078;2023-04-21T02:38:45;97292.91;;;7.29;80.52
26083;BME280;13848;49.018;12.078;2023-04-21T02:41:11;97290.44;;;7.27;80.63
26083;BME280;13848;49.018;12.078;2023-04-21T02:43:37;97279.69;;;7.34;80.23
26083;BME280;13848;49.018;12.078;2023-04-21T02:46:05;97291.25;;;7.28;80.48
26083;BME280;13848;49.018;12.078;2023-04-21T02:48:32;97285.91;;;7.28;80.02
26083;BME280;13848;49.018;12.078;2023-04-21T02:50:58;97283.44;;;7.19;80.18
26083;BME280;13848;49.018;12.078;2023-04-21T02:53:24;97277.69;;;7.16;81.02
26083;BME280;13848;49.018;12.078;2023-04-21T02:55:50;97283.03;;;7.23;80.52
26083;BME280;13848;49.018;12.078;2023-04-21T02:58:16;97288.81;;;7.19;80.35
26083;BME280;13848;49.018;12.078;2023-04-21T03:00:42;97285.91;;;7.21;79.94
26083;BME280;13848;49.018;12.078;2023-04-21T03:03:08;97286.13;;;7.13;80.03
26083;BME280;13848;49.018;12.078;2023-04-21T03:05:36;97283.44;;;7.13;80.37
26083;BME280;13848;49.018;12.078;2023-04-21T03:08:02;97283.84;;;7.16;80.79
26083;BME280;13848;49.018;12.078;2023-04-21T03:10:28;97286.78;;;7.08;80.59
26083;BME280;13848;49.018;12.078;2023-04-21T03:12:54;97296.88;;;7.06;80.70
26083;BME280;13848;49.018;12.078;2023-04-21T03:15:19;97298.34;;;7.02;81.26
26083;BME280;13848;49.018;12.078;2023-04-21T03:17:45;97303.28;;;6.92;81.15
26083;BME280;13848;49.018;12.078;2023-04-21T03:20:11;97307.59;;;6.93;80.94
26083;BME280;13848;49.018;12.078;2023-04-21T03:22:39;97304.91;;;7.00;80.28
26083;BME280;13848;49.018;12.078;2023-04-21T03:25:05;97305.56;;;7.02;80.88
26083;BME280;13848;49.018;12.078;2023-04-21T03:27:31;97305.34;;;7.03;80.42
26083;BME280;13848;49.018;12.078;2023-04-21T03:29:57;97310.28;;;7.00;80.34
26083;BME280;13848;49.018;12.078;2023-04-21T03:32:23;97304.53;;;6.96;80.13
26083;BME280;13848;49.018;12.078;2023-04-21T03:34:49;97302.66;;;6.97;80.44
26083;BME280;13848;49.018;12.078;2023-04-21T03:37:15;97304.72;;;6.94;80.67
26083;BME280;13848;49.018;12.078;2023-04-21T03:39:42;97305.16;;;6.91;80.76
26083;BME280;13848;49.018;12.078;2023-04-21T03:42:08;97305.75;;;6.87;81.10
26083;BME280;13848;49.018;12.078;2023-04-21T03:44:34;97305.97;;;6.79;81.52
26083;BME280;13848;49.018;12.078;2023-04-21T03:47:00;97308.25;;;6.69;81.78
26083;BME280;13848;49.018;12.078;2023-04-21T03:49:26;97306.59;;;6.81;81.35
26083;BME280;13848;49.018;12.078;2023-04-21T03:51:52;97313.19;;;6.65;82.08
26083;BME280;13848;49.018;12.078;2023-04-21T03:54:18;97306.19;;;6.71;82.60
26083;BME280;13848;49.018;12.078;2023-04-21T03:56:45;97307.00;;;6.78;81.87
26083;BME280;13848;49.018;12.078;2023-04-21T03:59:11;97299.59;;;6.80;81.68
26083;BME280;13848;49.018;12.078;2023-04-21T04:01:37;97291.34;;;6.81;82.06
26083;BME280;13848;49.018;12.078;2023-04-21T04:04:03;97294.66;;;6.90;81.51
26083;BME280;13848;49.018;12.078;2023-04-21T04:06:29;97290.72;;;6.86;81.85
26083;BME280;13848;49.018;12.078;2023-04-21T04:08:55;97294.22;;;6.86;81.64
26083;BME280;13848;49.018;12.078;2023-04-21T04:11:21;97299.59;;;6.80;81.88
26083;BME280;13848;49.018;12.078;2023-04-21T04:13:48;97299.78;;;6.85;81.42
26083;BME280;13848;49.018;12.078;2023-04-21T04:16:14;97297.50;;;6.88;81.05
26083;BME280;13848;49.018;12.078;2023-04-21T04:18:40;97301.66;;;6.84;80.96
26083;BME280;13848;49.018;12.078;2023-04-21T04:21:06;97302.03;;;6.88;81.34
26083;BME280;13848;49.018;12.078;2023-04-21T04:23:32;97304.31;;;6.91;80.97
26083;BME280;13848;49.018;12.078;2023-04-21T04:25:58;97311.13;;;6.80;81.03
26083;BME280;13848;49.018;12.078;2023-04-21T04:28:24;97302.28;;;6.80;81.89
26083;BME280;13848;49.018;12.078;2023-04-21T04:30:51;97313.81;;;6.87;81.88
26083;BME280;13848;49.018;12.078;2023-04-21T04:33:17;97313.59;;;6.88;81.54
26083;BME280;13848;49.018;12.078;2023-04-21T04:35:43;97304.09;;;6.92;81.37
26083;BME280;13848;49.018;12.078;2023-04-21T04:38:09;97314.63;;;6.94;81.72
26083;BME280;13848;49.018;12.078;2023-04-21T04:40:35;97312.34;;;6.98;81.61
26083;BME280;13848;49.018;12.078;2023-04-21T04:43:01;97319.97;;;7.01;81.62
26083;BME280;13848;49.018;12.078;2023-04-21T04:45:27;97319.78;;;7.02;81.15
26083;BME280;13848;49.018;12.078;2023-04-21T04:47:54;97317.09;;;7.02;81.29
26083;BME280;13848;49.018;12.078;2023-04-21T04:50:20;97320.19;;;6.99;81.35
26083;BME280;13848;49.018;12.078;2023-04-21T04:52:49;97325.31;;;7.01;81.57
26083;BME280;13848;49.018;12.078;2023-04-21T04:55:15;97320.41;;;6.98;82.04
26083;BME280;13848;49.018;12.078;2023-04-21T04:57:41;97321.41;;;7.03;81.61
26083;BME280;13848;49.018;12.078;2023-04-21T05:00:08;97317.09;;;7.09;81.48
26083;BME280;13848;49.018;12.078;2023-04-21T05:02:34;97317.91;;;7.03;81.58
26083;BME280;13848;49.018;12.078;2023-04-21T05:05:01;97313.59;;;7.02;81.90
26083;BME280;13848;49.018;12.078;2023-04-21T05:07:27;97311.50;;;7.10;81.93
26083;BME280;13848;49.018;12.078;2023-04-21T05:09:53;97316.44;;;7.20;81.84
26083;BME280;13848;49.018;12.078;2023-04-21T05:12:19;97319.50;;;7.24;81.64
26083;BME280;13848;49.018;12.078;2023-04-21T05:14:45;97317.66;;;7.31;81.71
26083;BME280;13848;49.018;12.078;2023-04-21T05:17:11;97320.09;;;7.39;81.13
26083;BME280;13848;49.018;12.078;2023-04-21T05:19:36;97313.31;;;7.36;80.94
26083;BME280;13848;49.018;12.078;2023-04-21T05:22:04;97323.84;;;7.38;81.22
26083;BME280;13848;49.018;12.078;2023-04-21T05:24:30;97324.22;;;7.48;80.96
26083;BME280;13848;49.018;12.078;2023-04-21T05:26:56;97318.00;;;7.54;80.97
26083;BME280;13848;49.018;12.078;2023-04-21T05:29:22;97310.13;;;7.59;80.51
26083;BME280;13848;49.018;12.078;2023-04-21T05:31:47;97318.78;;;7.68;80.52
26083;BME280;13848;49.018;12.078;2023-04-21T05:34:13;97317.28;;;7.79;80.67
26083;BME280;13848;49.018;12.078;2023-04-21T05:36:40;97315.59;;;7.91;80.26
26083;BME280;13848;49.018;12.078;2023-04-21T05:39:07;97313.47;;;8.06;80.19
26083;BME280;13848;49.018;12.078;2023-04-21T05:41:33;97317.66;;;8.27;79.99
26083;BME280;13848;49.018;12.078;2023-04-21T05:43:59;97326.13;;;8.31;79.91
26083;BME280;13848;49.018;12.078;2023-04-21T05:46:25;97323.78;;;8.47;79.86
26083;BME280;13848;49.018;12.078;2023-04-21T05:48:51;97327.34;;;8.66;79.47
26083;BME280;13848;49.018;12.078;2023-04-21T05:51:17;97327.63;;;8.83;79.25
26083;BME280;13848;49.018;12.078;2023-04-21T05:53:44;97330.38;;;9.01;79.19
26083;BME280;13848;49.018;12.078;2023-04-21T05:56:11;97322.56;;;9.18;78.81
26083;BME280;13848;49.018;12.078;2023-04-21T05:58:37;97325.41;;;9.23;78.39
26083;BME280;13848;49.018;12.078;2023-04-21T06:01:04;97315.91;;;9.39;78.39
26083;BME280;13848;49.018;12.078;2023-04-21T06:03:30;97319.31;;;9.53;78.28
26083;BME280;13848;49.018;12.078;2023-04-21T06:05:58;97318.00;;;9.74;78.21
26083;BME280;13848;49.018;12.078;2023-04-21T06:08:24;97315.03;;;9.82;77.71
26083;BME280;13848;49.018;12.078;2023-04-21T06:10:50;97320.19;;;9.83;77.06
26083;BME280;13848;49.018;12.078;2023-04-21T06:13:17;97321.78;;;10.03;77.62
26083;BME280;13848;49.018;12.078;2023-04-21T06:15:43;97322.41;;;10.23;77.04
26083;BME280;13848;49.018;12.078;2023-04-21T06:18:09;97323.50;;;10.34;76.36
26083;BME280;13848;49.018;12.078;2023-04-21T06:20:35;97320.66;;;10.29;76.00
26083;BME280;13848;49.018;12.078;2023-04-21T06:23:01;97314.13;;;10.18;76.49
26083;BME280;13848;49.018;12.078;2023-04-21T06:25:27;97316.34;;;10.28;76.06
26083;BME280;13848;49.018;12.078;2023-04-21T06:27:53;97321.97;;;10.26;75.42
26083;BME280;13848;49.018;12.078;2023-04-21T06:30:20;97312.34;;;10.30;75.45
26083;BME280;13848;49.018;12.078;2023-04-21T06:32:46;97318.00;;;10.41;75.02
26083;BME280;13848;49.018;12.078;2023-04-21T06:35:12;97315.44;;;10.46;75.67
26083;BME280;13848;49.018;12.078;2023-04-21T06:37:38;97316.94;;;10.42;75.42
26083;BME280;13848;49.018;12.078;2023-04-21T06:40:05;97312.63;;;10.41;75.37
26083;BME280;13848;49.018;12.078;2023-04-21T06:42:31;97319.09;;;10.51;75.27
26083;BME280;13848;49.018;12.078;2023-04-21T06:44:57;97318.06;;;10.64;75.18
26083;BME280;13848;49.018;12.078;2023-04-21T06:47:24;97319.88;;;10.82;75.36
26083;BME280;13848;49.018;12.078;2023-04-21T06:49:50;97312.97;;;11.09;74.84
26083;BME280;13848;49.018;12.078;2023-04-21T06:52:16;97312.84;;;11.16;74.18
26083;BME280;13848;49.018;12.078;2023-04-21T06:54:42;97321.50;;;11.53;74.36
26083;BME280;13848;49.018;12.078;2023-04-21T06:57:08;97318.69;;;11.71;74.21
26083;BME280;13848;49.018;12.078;2023-04-21T06:59:34;97320.66;;;11.76;73.17
26083;BME280;13848;49.018;12.078;2023-04-21T07:02:00;97314.53;;;11.92;72.50
26083;BME280;13848;49.018;12.078;2023-04-21T07:04:27;97314.06;;;11.95;71.00
26083;BME280;13848;49.018;12.078;2023-04-21T07:06:53;97315.22;;;11.99;71.43
26083;BME280;13848;49.018;12.078;2023-04-21T07:09:19;97309.91;;;12.05;71.09
26083;BME280;13848;49.018;12.078;2023-04-21T07:11:45;97320.53;;;12.23;71.55
26083;BME280;13848;49.018;12.078;2023-04-21T07:14:11;97317.88;;;12.85;72.56
26083;BME280;13848;49.018;12.078;2023-04-21T07:16:37;97316.72;;;13.15;71.17
26083;BME280;13848;49.018;12.078;2023-04-21T07:19:03;97321.63;;;12.67;65.89
26083;BME280;13848;49.018;12.078;2023-04-21T07:21:31;97312.28;;;12.75;69.27
26083;BME280;13848;49.018;12.078;2023-04-21T07:23:57;97309.50;;;13.03;68.81
26083;BME280;13848;49.018;12.078;2023-04-21T07:26:23;97309.41;;;13.15;67.54
26083;BME280;13848;49.018;12.078;2023-04-21T07:28:49;97314.09;;;13.20;66.54
26083;BME280;13848;49.018;12.078;2023-04-21T07:31:15;97318.25;;;13.22;66.13
26083;BME280;13848;49.018;12.078;2023-04-21T07:33:41;97311.47;;;12.29;64.97
26083;BME280;13848;49.018;12.078;2023-04-21T07:36:07;97313.44;;;12.79;64.33
26083;BME280;13848;49.018;12.078;2023-04-21T07:38:35;97306.72;;;12.98;65.04
26083;BME280;13848;49.018;12.078;2023-04-21T07:41:01;97299.03;;;13.24;65.30
26083;BME280;13848;49.018;12.078;2023-04-21T07:43:27;97298.44;;;13.39;63.09
26083;BME280;13848;49.018;12.078;2023-04-21T07:45:53;97308.94;;;13.52;62.45
26083;BME280;13848;49.018;12.078;2023-04-21T07:48:19;97308.69;;;13.75;63.26
26083;BME280;13848;49.018;12.078;2023-04-21T07:50:45;97312.84;;;13.83;62.71
26083;BME280;13848;49.018;12.078;2023-04-21T07:53:11;97305.25;;;14.29;61.69
26083;BME280;13848;49.018;12.078;2023-04-21T07:55:38;97306.41;;;14.60;61.96
26083;BME280;13848;49.018;12.078;2023-04-21T07:58:04;97312.97;;;14.91;62.02
26083;BME280;13848;49.018;12.078;2023-04-21T08:00:30;97307.91;;;14.73;60.28
26083;BME280;13848;49.018;12.078;2023-04-21T08:02:56;97307.13;;;14.77;59.27
26083;BME280;13848;49.018;12.078;2023-04-21T08:05:22;97317.03;;;14.61;57.07
26083;BME280;13848;49.018;12.078;2023-04-21T08:07:48;97315.59;;;14.32;56.53
26083;BME280;13848;49.018;12.078;2023-04-21T08:10:14;97313.81;;;14.16;58.10
26083;BME280;13848;49.018;12.078;2023-04-21T08:12:41;97316.97;;;14.56;58.43
26083;BME280;13848;49.018;12.078;2023-04-21T08:15:07;97325.38;;;14.33;57.14
26083;BME280;13848;49.018;12.078;2023-04-21T08:17:34;97316.81;;;14.19;58.28
26083;BME280;13848;49.018;12.078;2023-04-21T08:20:00;97317.91;;;14.45;57.56
26083;BME280;13848;49.018;12.078;2023-04-21T08:22:26;97319.06;;;14.49;56.65
26083;BME280;13848;49.018;12.078;2023-04-21T08:24:52;97319.31;;;14.48;54.16
26083;BME280;13848;49.018;12.078;2023-04-21T08:27:18;97317.13;;;14.23;55.60
26083;BME280;13848;49.018;12.078;2023-04-21T08:29:45;97325.31;;;14.50;54.18
26083;BME280;13848;49.018;12.078;2023-04-21T08:32:11;97319.97;;;14.33;55.49
26083;BME280;13848;49.018;12.078;2023-04-21T08:34:37;97322.59;;;14.77;53.89
26083;BME280;13848;49.018;12.078;2023-04-21T08:37:03;97321.06;;;14.59;53.17
26083;BME280;13848;49.018;12.078;2023-04-21T08:39:29;97318.34;;;14.37;54.21
26083;BME280;13848;49.018;12.078;2023-04-21T08:41:55;97309.78;;;14.45;53.81
26083;BME280;13848;49.018;12.078;2023-04-21T08:44:23;97316.38;;;14.27;54.38
26083;BME280;13848;49.018;12.078;2023-04-21T08:46:51;97322.41;;;14.56;54.45
26083;BME280;13848;49.018;12.078;2023-04-21T08:49:19;97318.44;;;15.01;55.39
26083;BME280;13848;49.018;12.078;2023-04-21T08:51:46;97323.38;;;15.04;54.45
26083;BME280;13848;49.018;12.078;2023-04-21T08:54:12;97326.22;;;14.60;54.95
26083;BME280;13848;49.018;12.078;2023-04-21T08:56:39;97323.88;;;15.01;53.91
26083;BME280;13848;49.018;12.078;2023-04-21T08:59:05;97326.84;;;14.68;53.11
26083;BME280;13848;49.018;12.078;2023-04-21T09:01:31;97325.81;;;14.03;53.62
26083;BME280;13848;49.018;12.078;2023-04-21T09:04:14;97313.28;;;14.19;55.27
26083;BME280;13848;49.018;12.078;2023-04-21T09:06:40;97312.16;;;14.96;54.57
26083;BME280;13848;49.018;12.078;2023-04-21T09:09:06;97312.97;;;14.91;52.50
26083;BME280;13848;49.018;12.078;2023-04-21T09:11:32;97324.00;;;15.16;51.96
26083;BME280;13848;49.018;12.078;2023-04-21T09:13:59;97321.69;;;14.98;51.74
26083;BME280;13848;49.018;12.078;2023-04-21T09:16:29;97336.63;;;15.33;50.32
26083;BME280;13848;49.018;12.078;2023-04-21T09:18:55;97318.47;;;15.38;50.85
26083;BME280;13848;49.018;12.078;2023-04-21T09:21:27;97322.59;;;15.09;50.34
26083;BME280;13848;49.018;12.078;2023-04-21T09:23:53;97319.63;;;15.10;51.40
26083;BME280;13848;49.018;12.078;2023-04-21T09:26:20;97313.13;;;15.54;51.71
26083;BME280;13848;49.018;12.078;2023-04-21T09:28:48;97304.16;;;15.53;50.02
26083;BME280;13848;49.018;12.078;2023-04-21T09:31:15;97315.13;;;15.26;51.00
26083;BME280;13848;49.018;12.078;2023-04-21T09:33:45;97311.38;;;15.75;51.04
26083;BME280;13848;49.018;12.078;2023-04-21T09:36:24;97307.00;;;15.68;50.78
26083;BME280;13848;49.018;12.078;2023-04-21T09:38:58;97306.88;;;16.01;49.73
26083;BME280;13848;49.018;12.078;2023-04-21T09:41:24;97309.44;;;16.38;50.41
26083;BME280;13848;49.018;12.078;2023-04-21T09:43:50;97318.66;;;16.27;48.77
26083;BME280;13848;49.018;12.078;2023-04-21T09:46:17;97302.91;;;16.34;49.66
26083;BME280;13848;49.018;12.078;2023-04-21T09:48:45;97306.53;;;16.70;48.80
26083;BME280;13848;49.018;12.078;2023-04-21T09:51:13;97307.41;;;17.06;48.05
26083;BME280;13848;49.018;12.078;2023-04-21T09:53:41;97318.75;;;16.67;47.54
26083;BME280;13848;49.018;12.078;2023-04-21T09:56:10;97309.81;;;16.72;48.64
26083;BME280;13848;49.018;12.078;2023-04-21T09:58:40;97305.47;;;16.76;47.88
26083;BME280;13848;49.018;12.078;2023-04-21T10:01:09;97296.94;;;16.52;48.28
26083;BME280;13848;49.018;12.078;2023-04-21T10:03:37;97294.78;;;17.51;48.03
26083;BME280;13848;49.018;12.078;2023-04-21T10:06:04;97291.53;;;17.74;45.42
26083;BME280;13848;49.018;12.078;2023-04-21T10:08:30;97287.75;;;17.40;46.30
26083;BME280;13848;49.018;12.078;2023-04-21T10:10:58;97297.28;;;17.27;45.33
26083;BME280;13848;49.018;12.078;2023-04-21T10:13:25;97297.56;;;17.41;45.52
26083;BME280;13848;49.018;12.078;2023-04-21T10:16:00;97309.03;;;16.82;45.18
26083;BME280;13848;49.018;12.078;2023-04-21T10:18:27;97275.78;;;16.64;46.20
26083;BME280;13848;49.018;12.078;2023-04-21T10:20:55;97287.78;;;16.89;45.71
26083;BME280;13848;49.018;12.078;2023-04-21T10:23:35;97284.47;;;17.38;46.18
26083;BME280;13848;49.018;12.078;2023-04-21T10:26:04;97280.72;;;16.83;44.84
26083;BME280;13848;49.018;12.078;2023-04-21T10:28:51;97284.50;;;17.07;45.39
26083;BME280;13848;49.018;12.078;2023-04-21T10:31:22;97285.84;;;17.25;43.63
26083;BME280;13848;49.018;12.078;2023-04-21T10:37:17;97270.91;;;17.02;45.56
26083;BME280;13848;49.018;12.078;2023-04-21T10:39:54;97275.75;;;17.36;44.58
26083;BME280;13848;49.018;12.078;2023-04-21T10:42:24;97261.53;;;17.54;44.08
26083;BME280;13848;49.018;12.078;2023-04-21T10:47:35;97270.25;;;17.51;43.41
26083;BME280;13848;49.018;12.078;2023-04-21T10:50:11;97267.28;;;17.58;44.00
26083;BME280;13848;49.018;12.078;2023-04-21T10:52:37;97261.53;;;17.64;43.49
26083;BME280;13848;49.018;12.078;2023-04-21T10:55:07;97257.41;;;18.37;44.00
26083;BME280;13848;49.018;12.078;2023-04-21T10:57:35;97255.94;;;18.49;42.66
26083;BME280;13848;49.018;12.078;2023-04-21T11:00:01;97257.56;;;18.95;42.36
26083;BME280;13848;49.018;12.078;2023-04-21T11:02:27;97262.94;;;18.71;42.21
26083;BME280;13848;49.018;12.078;2023-04-21T11:04:53;97250.00;;;17.93;42.29
26083;BME280;13848;49.018;12.078;2023-04-21T11:07:20;97259.03;;;17.78;43.74
26083;BME280;13848;49.018;12.078;2023-04-21T11:09:47;97254.75;;;18.66;43.19
26083;BME280;13848;49.018;12.078;2023-04-21T11:12:15;97252.00;;;19.05;42.46
26083;BME280;13848;49.018;12.078;2023-04-21T11:14:44;97261.22;;;19.14;42.00
26083;BME280;13848;49.018;12.078;2023-04-21T11:17:12;97256.88;;;18.79;41.84
26083;BME280;13848;49.018;12.078;2023-04-21T11:19:38;97262.38;;;19.08;41.70
26083;BME280;13848;49.018;12.078;2023-04-21T11:22:04;97251.16;;;18.26;42.09
26083;BME280;13848;49.018;12.078;2023-04-21T11:24:30;97251.44;;;17.75;43.36
26083;BME280;13848;49.018;12.078;2023-04-21T11:26:56;97249.88;;;18.18;43.77
26083;BME280;13848;49.018;12.078;2023-04-21T11:29:22;97250.81;;;18.43;42.28
26083;BME280;13848;49.018;12.078;2023-04-21T11:31:50;97249.97;;;18.86;42.04
26083;BME280;13848;49.018;12.078;2023-04-21T11:34:19;97234.84;;;19.52;42.30
26083;BME280;13848;49.018;12.078;2023-04-21T11:36:46;97239.19;;;19.58;39.67
26083;BME280;13848;49.018;12.078;2023-04-21T11:39:14;97240.19;;;18.80;41.76
26083;BME280;13848;49.018;12.078;2023-04-21T11:41:42;97231.09;;;18.90;42.08
26083;BME280;13848;49.018;12.078;2023-04-21T11:44:09;97235.66;;;19.53;39.69
26083;BME280;13848;49.018;12.078;2023-04-21T11:46:35;97237.91;;;19.22;39.59
26083;BME280;13848;49.018;12.078;2023-04-21T11:49:03;97224.50;;;19.25;39.40
26083;BME280;13848;49.018;12.078;2023-04-21T11:51:33;97235.09;;;19.56;40.50
26083;BME280;13848;49.018;12.078;2023-04-21T11:54:00;97227.75;;;19.27;40.11
26083;BME280;13848;49.018;12.078;2023-04-21T11:56:26;97226.69;;;19.47;40.02
26083;BME280;13848;49.018;12.078;2023-04-21T11:58:52;97220.28;;;19.62;40.14
26083;BME280;13848;49.018;12.078;2023-04-21T12:01:19;97220.44;;;19.71;39.44
26083;BME280;13848;49.018;12.078;2023-04-21T12:03:52;97220.63;;;19.79;40.00
26083;BME280;13848;49.018;12.078;2023-04-21T12:06:24;97222.66;;;18.86;41.04
26083;BME280;13848;49.018;12.078;2023-04-21T12:08:53;97230.78;;;18.97;39.56
26083;BME280;13848;49.018;12.078;2023-04-21T12:11:19;97223.72;;;18.91;40.16
26083;BME280;13848;49.018;12.078;2023-04-21T12:13:45;97220.38;;;18.99;40.62
26083;BME280;13848;49.018;12.078;2023-04-21T12:16:11;97221.03;;;19.44;39.63
26083;BME280;13848;49.018;12.078;2023-04-21T12:18:37;97214.00;;;19.61;40.09
26083;BME280;13848;49.018;12.078;2023-04-21T12:21:03;97209.78;;;19.21;39.39
26083;BME280;13848;49.018;12.078;2023-04-21T12:23:31;97210.09;;;19.44;39.42
26083;BME280;13848;49.018;12.078;2023-04-21T12:25:57;97202.25;;;20.04;40.49
26083;BME280;13848;49.018;12.078;2023-04-21T12:28:23;97198.94;;;19.64;38.09
26083;BME280;13848;49.018;12.078;2023-04-21T12:30:49;97202.97;;;19.90;39.64
26083;BME280;13848;49.018;12.078;2023-04-21T12:33:14;97190.19;;;20.05;38.29
26083;BME280;13848;49.018;12.078;2023-04-21T12:35:40;97203.09;;;19.80;38.74
26083;BME280;13848;49.018;12.078;2023-04-21T12:38:06;97194.56;;;19.63;39.01
26083;BME280;13848;49.018;12.078;2023-04-21T12:40:34;97190.25;;;19.81;40.17
26083;BME280;13848;49.018;12.078;2023-04-21T12:43:00;97179.16;;;20.10;39.31
26083;BME280;13848;49.018;12.078;2023-04-21T12:45:26;97185.69;;;19.71;39.32
26083;BME280;13848;49.018;12.078;2023-04-21T12:47:52;97183.44;;;19.54;38.96
26083;BME280;13848;49.018;12.078;2023-04-21T12:50:18;97177.13;;;19.54;39.57
26083;BME280;13848;49.018;12.078;2023-04-21T12:52:44;97180.53;;;19.46;39.23
26083;BME280;13848;49.018;12.078;2023-04-21T12:55:09;97171.09;;;19.57;39.62
26083;BME280;13848;49.018;12.078;2023-04-21T12:57:37;97169.38;;;19.66;39.70